Giddings, Texas
Current Conditions -  °F | °C
As of 6:35 AM on Monday 24 Nov 2014 (Local Time) from KGYB Reporting Station
Clear Clear  
Wind Chill:   Ceiling: Unl
Heat Index:   Visibility: 10mi
Dew Point:   Wind: 5mph
Humidity: 71%   Direction: 360°N
Pressure: 30.02"   Gusts: NA
Location:  30.18°N, 96.94°W
Report Text: KGYB 241235Z AUTO 36004KT 10SM CLR 08/03 A3002 RMK AO2 T00800030
Loading
Personal Weather Stations






























Interactive Weather Map New forecast layout! Learn more

10-Day Weather Forecast

Advertisements
Track Severe Weather on mobile